createdAt,value
2019-03-09T00:01:24.969Z,100258.44
2019-03-09T00:03:50.910Z,100251.99
2019-03-09T00:06:17.086Z,100253.97
2019-03-09T00:08:43.136Z,100262.98
2019-03-09T00:11:09.169Z,100261.72
2019-03-09T00:13:35.184Z,100269.04
2019-03-09T00:16:01.115Z,100274.66
2019-03-09T00:18:27.809Z,100268.11
2019-03-09T00:20:53.731Z,100265.64
2019-03-09T00:23:38.609Z,100272.36
2019-03-09T00:26:09.085Z,100279.56
2019-03-09T00:28:42.882Z,100280.75
2019-03-09T00:31:13.636Z,100291.08
2019-03-09T00:33:39.486Z,100291.06
2019-03-09T00:36:05.540Z,100297.31
2019-03-09T00:38:31.371Z,100299.06
2019-03-09T00:40:57.257Z,100294.37
2019-03-09T00:43:23.097Z,100301.23
2019-03-09T00:45:49.138Z,100296.20
2019-03-09T00:48:15.258Z,100293.48
2019-03-09T00:50:41.196Z,100296.64
2019-03-09T00:53:09.927Z,100290.11
2019-03-09T00:55:36.040Z,100283.99
2019-03-09T00:58:02.112Z,100280.11
2019-03-09T01:00:28.168Z,100284.53
2019-03-09T01:02:54.147Z,100291.58
2019-03-09T01:05:20.302Z,100278.80
2019-03-09T01:07:46.408Z,100280.20
2019-03-09T01:10:14.027Z,100279.80
2019-03-09T01:12:40.116Z,100285.08
2019-03-09T01:15:07.175Z,100285.20
2019-03-09T01:17:33.089Z,100285.20
2019-03-09T01:19:59.092Z,100281.09
2019-03-09T01:22:25.226Z,100281.75
2019-03-09T01:24:51.440Z,100277.55
2019-03-09T01:27:17.459Z,100273.12
2019-03-09T01:29:43.414Z,100276.73
2019-03-09T01:32:09.448Z,100280.10
2019-03-09T01:34:35.513Z,100275.77
2019-03-09T01:37:01.678Z,100281.42
2019-03-09T01:39:27.596Z,100286.65
2019-03-09T01:41:53.609Z,100277.39
2019-03-09T01:44:19.449Z,100275.94
2019-03-09T01:46:45.391Z,100272.47
2019-03-09T01:49:11.696Z,100271.14
2019-03-09T01:51:37.544Z,100287.64
2019-03-09T01:54:07.464Z,100300.85
2019-03-09T01:56:33.550Z,100292.73
2019-03-09T01:58:59.384Z,100301.00
2019-03-09T02:01:25.309Z,100287.68
2019-03-09T02:03:51.421Z,100284.66
2019-03-09T02:06:17.377Z,100281.95
2019-03-09T02:08:43.368Z,100276.16
2019-03-09T02:11:09.483Z,100271.95
2019-03-09T02:13:35.453Z,100270.83
2019-03-09T02:16:01.492Z,100282.88
2019-03-09T02:18:27.679Z,100277.81
2019-03-09T02:20:53.627Z,100278.84
2019-03-09T02:23:19.574Z,100277.52
2019-03-09T02:25:45.529Z,100282.36
2019-03-09T02:28:11.569Z,100271.52
2019-03-09T02:30:37.487Z,100272.78
2019-03-09T02:33:03.436Z,100279.62
2019-03-09T02:35:29.268Z,100276.88
2019-03-09T02:37:57.082Z,100279.66
2019-03-09T02:40:24.920Z,100289.83
2019-03-09T02:42:50.864Z,100286.33
2019-03-09T02:45:19.173Z,100285.27
2019-03-09T02:47:45.102Z,100278.66
2019-03-09T02:50:13.157Z,100269.08
2019-03-09T02:52:39.347Z,100260.33
2019-03-09T02:55:07.312Z,100260.45
2019-03-09T02:57:33.291Z,100265.78
2019-03-09T03:00:00.959Z,100268.86
2019-03-09T03:02:34.933Z,100262.82
2019-03-09T03:05:00.876Z,100263.05
2019-03-09T03:07:26.889Z,100253.56
2019-03-09T03:09:52.720Z,100262.70
2019-03-09T03:12:18.650Z,100262.55
2019-03-09T03:14:44.593Z,100264.37
2019-03-09T03:17:10.432Z,100263.67
2019-03-09T03:19:36.272Z,100257.73
2019-03-09T03:22:02.323Z,100262.47
2019-03-09T03:24:28.385Z,100269.89
2019-03-09T03:26:54.336Z,100264.08
2019-03-09T03:29:20.986Z,100272.17
2019-03-09T03:31:46.915Z,100263.44
2019-03-09T03:34:12.756Z,100256.55
2019-03-09T03:36:38.757Z,100267.37
2019-03-09T03:39:05.495Z,100260.11
2019-03-09T03:41:31.741Z,100261.58
2019-03-09T03:43:57.815Z,100262.45
2019-03-09T03:46:23.763Z,100256.36
2019-03-09T03:48:49.803Z,100253.77
2019-03-09T03:51:15.781Z,100254.32
2019-03-09T03:53:42.001Z,100256.09
2019-03-09T03:56:08.058Z,100253.81
2019-03-09T03:58:34.222Z,100256.83
2019-03-09T04:01:00.279Z,100256.76
2019-03-09T04:03:26.116Z,100264.35
2019-03-09T04:05:52.237Z,100258.87
2019-03-09T04:08:18.381Z,100269.29
2019-03-09T04:10:44.503Z,100268.92
2019-03-09T04:13:10.864Z,100274.17
2019-03-09T04:15:36.904Z,100282.14
2019-03-09T04:18:02.889Z,100284.72
2019-03-09T04:20:28.837Z,100285.05
2019-03-09T04:22:54.680Z,100285.05
2019-03-09T04:25:20.814Z,100282.09
2019-03-09T04:27:46.737Z,100288.31
2019-03-09T04:30:12.777Z,100290.05
2019-03-09T04:32:38.758Z,100289.07
2019-03-09T04:35:05.810Z,100283.88
2019-03-09T04:37:31.774Z,100281.17
2019-03-09T04:39:57.774Z,100288.59
2019-03-09T04:42:23.840Z,100282.50
2019-03-09T04:44:49.985Z,100295.30
2019-03-09T04:47:15.872Z,100289.69
2019-03-09T04:49:41.701Z,100292.80
2019-03-09T04:52:07.753Z,100300.83
2019-03-09T04:54:33.613Z,100290.88
2019-03-09T04:56:59.454Z,100288.08
2019-03-09T04:59:25.529Z,100296.36
2019-03-09T05:01:51.344Z,100294.30
2019-03-09T05:04:27.371Z,100294.30
2019-03-09T05:06:53.341Z,100287.73
2019-03-09T05:09:44.294Z,100282.92
2019-03-09T05:12:10.149Z,100276.50
2019-03-09T05:14:36.118Z,100280.52
2019-03-09T05:17:02.053Z,100277.92
2019-03-09T05:19:27.908Z,100278.25
2019-03-09T05:21:53.819Z,100284.83
2019-03-09T05:24:19.652Z,100278.77
2019-03-09T05:26:45.573Z,100284.97
2019-03-09T05:29:11.497Z,100291.41
2019-03-09T05:31:37.327Z,100289.69
2019-03-09T05:34:03.273Z,100287.49
2019-03-09T05:36:29.261Z,100296.23
2019-03-09T05:38:55.139Z,100294.95
2019-03-09T05:41:21.113Z,100294.94
2019-03-09T05:43:46.971Z,100295.88
2019-03-09T05:46:12.813Z,100304.22
2019-03-09T05:48:38.697Z,100305.91
2019-03-09T05:51:04.545Z,100302.55
2019-03-09T05:53:30.416Z,100305.05
2019-03-09T05:55:59.633Z,100305.08
2019-03-09T05:58:25.733Z,100309.00
2019-03-09T06:00:51.884Z,100305.37
2019-03-09T06:03:17.811Z,100309.30
2019-03-09T06:05:45.781Z,100314.09
2019-03-09T06:08:11.663Z,100312.30
2019-03-09T06:10:37.624Z,100317.52
2019-03-09T06:13:03.858Z,100328.44
2019-03-09T06:15:29.990Z,100332.37
2019-03-09T06:17:55.786Z,100333.28
2019-03-09T06:20:21.832Z,100333.73
2019-03-09T06:22:47.816Z,100329.28
2019-03-09T06:25:13.734Z,100323.59
2019-03-09T06:27:39.667Z,100323.63
2019-03-09T06:30:07.632Z,100325.80
2019-03-09T06:32:37.305Z,100335.88
2019-03-09T06:35:06.894Z,100338.13
2019-03-09T06:37:32.735Z,100343.80
2019-03-09T06:39:58.670Z,100347.16
2019-03-09T06:42:28.290Z,100347.05
2019-03-09T06:44:54.259Z,100359.81
2019-03-09T06:47:20.093Z,100377.21
2019-03-09T06:49:45.989Z,100363.31
2019-03-09T06:52:12.034Z,100360.38
2019-03-09T06:54:37.988Z,100367.58
2019-03-09T06:57:13.249Z,100369.63
2019-03-09T06:59:31.840Z,100365.23
2019-03-09T07:01:57.826Z,100373.33
2019-03-09T07:04:23.685Z,100372.62
2019-03-09T07:06:49.509Z,100374.82
2019-03-09T07:09:15.413Z,100384.69
2019-03-09T07:11:41.258Z,100381.78
2019-03-09T07:14:44.546Z,100389.33
2019-03-09T07:17:10.393Z,100391.59
2019-03-09T07:19:36.262Z,100403.25
2019-03-09T07:22:02.255Z,100403.53
2019-03-09T07:24:28.070Z,100408.84
2019-03-09T07:26:53.906Z,100415.22
2019-03-09T07:29:19.787Z,100412.08
2019-03-09T07:31:45.649Z,100412.28
2019-03-09T07:34:25.845Z,100407.34
2019-03-09T07:36:51.686Z,100400.05
2019-03-09T07:39:17.636Z,100405.73
2019-03-09T07:41:43.546Z,100400.59
2019-03-09T07:44:09.478Z,100411.75
2019-03-09T07:46:35.398Z,100425.45
2019-03-09T07:49:01.364Z,100425.45
2019-03-09T07:51:27.197Z,100430.02
2019-03-09T07:53:53.179Z,100420.17
2019-03-09T07:56:19.274Z,100423.72
2019-03-09T07:58:45.319Z,100423.63
2019-03-09T08:01:11.182Z,100423.98
2019-03-09T08:03:37.130Z,100428.53
2019-03-09T08:06:03.068Z,100423.87
2019-03-09T08:08:28.922Z,100432.44
2019-03-09T08:10:54.789Z,100428.36
2019-03-09T08:13:20.783Z,100431.46
2019-03-09T08:15:46.757Z,100426.17
2019-03-09T08:18:12.630Z,100429.76
2019-03-09T08:20:38.498Z,100442.14
2019-03-09T08:23:04.419Z,100436.30
2019-03-09T08:25:30.495Z,100443.98
2019-03-09T08:27:56.434Z,100444.13
2019-03-09T08:30:24.204Z,100459.78
2019-03-09T08:32:50.509Z,100461.17
2019-03-09T08:35:17.540Z,100460.17
2019-03-09T08:37:43.751Z,100469.35
2019-03-09T08:40:12.231Z,100476.69
2019-03-09T08:42:38.213Z,100478.25
2019-03-09T08:45:06.988Z,100465.25
2019-03-09T08:47:32.952Z,100460.02
2019-03-09T08:49:58.884Z,100466.69
2019-03-09T08:52:24.788Z,100461.22
2019-03-09T08:54:50.669Z,100456.86
2019-03-09T08:57:16.475Z,100455.31
2019-03-09T08:59:42.349Z,100450.96
2019-03-09T09:02:08.523Z,100451.77
2019-03-09T09:04:34.788Z,100444.70
2019-03-09T09:07:00.878Z,100448.55
2019-03-09T09:09:26.955Z,100443.80
2019-03-09T09:11:53.006Z,100435.48
2019-03-09T09:14:18.869Z,100443.66
2019-03-09T09:16:44.747Z,100443.27
2019-03-09T09:19:10.600Z,100435.39
2019-03-09T09:21:36.449Z,100441.90
2019-03-09T09:24:02.716Z,100441.66
2019-03-09T09:26:28.575Z,100444.81
2019-03-09T09:28:54.396Z,100447.70
2019-03-09T09:31:20.294Z,100461.72
2019-03-09T09:33:46.119Z,100465.25
2019-03-09T09:36:12.119Z,100459.72
2019-03-09T09:38:38.037Z,100455.05
2019-03-09T09:41:04.073Z,100450.64
2019-03-09T09:43:29.915Z,100450.26
2019-03-09T09:45:56.022Z,100453.37
2019-03-09T09:48:21.838Z,100451.17
2019-03-09T09:50:47.991Z,100456.39
2019-03-09T09:53:13.982Z,100447.44
2019-03-09T09:55:39.925Z,100455.13
2019-03-09T09:58:06.033Z,100455.33
2019-03-09T10:00:35.760Z,100455.33
2019-03-09T10:03:01.591Z,100451.65
2019-03-09T10:05:27.602Z,100451.30
2019-03-09T10:07:53.473Z,100451.02
2019-03-09T10:10:20.508Z,100455.48
2019-03-09T10:12:46.695Z,100457.62
2019-03-09T10:15:26.961Z,100455.38
2019-03-09T10:17:53.095Z,100448.73
2019-03-09T10:20:19.235Z,100449.75
2019-03-09T10:22:45.052Z,100458.37
2019-03-09T10:25:11.164Z,100457.60
2019-03-09T10:27:37.102Z,100445.88
2019-03-09T10:30:09.761Z,100448.67
2019-03-09T10:32:35.773Z,100451.94
2019-03-09T10:35:01.833Z,100443.84
2019-03-09T10:37:27.770Z,100442.79
2019-03-09T10:39:53.757Z,100443.97
2019-03-09T10:42:19.573Z,100443.39
2019-03-09T10:44:45.610Z,100441.77
2019-03-09T10:47:11.597Z,100440.77
2019-03-09T10:49:37.535Z,100438.79
2019-03-09T10:52:03.369Z,100432.47
2019-03-09T10:54:35.946Z,100422.96
2019-03-09T10:56:57.128Z,100432.84
2019-03-09T10:59:23.085Z,100438.98
2019-03-09T11:01:49.099Z,100450.32
2019-03-09T11:04:15.197Z,100440.88
2019-03-09T11:06:41.182Z,100441.96
2019-03-09T11:09:07.037Z,100429.83
2019-03-09T11:11:32.876Z,100432.55
2019-03-09T11:13:58.776Z,100434.63
2019-03-09T11:16:24.629Z,100430.55
2019-03-09T11:18:50.467Z,100424.81
2019-03-09T11:21:16.690Z,100419.34
2019-03-09T11:23:42.593Z,100420.27
2019-03-09T11:26:08.559Z,100418.80
2019-03-09T11:28:34.942Z,100408.89
2019-03-09T11:31:00.785Z,100397.80
2019-03-09T11:33:26.693Z,100397.11
2019-03-09T11:35:52.649Z,100400.00
2019-03-09T11:38:18.722Z,100394.00
2019-03-09T11:40:44.641Z,100388.08
2019-03-09T11:43:10.600Z,100388.34
2019-03-09T11:45:36.774Z,100381.56
2019-03-09T11:48:02.894Z,100373.75
2019-03-09T11:50:28.720Z,100372.78
2019-03-09T11:52:54.774Z,100375.42
2019-03-09T11:55:20.802Z,100358.83
2019-03-09T11:57:46.824Z,100370.64
2019-03-09T12:00:22.383Z,100369.05
2019-03-09T12:02:48.530Z,100369.61
2019-03-09T12:05:14.369Z,100360.27
2019-03-09T12:07:40.199Z,100348.34
2019-03-09T12:10:10.467Z,100357.97
2019-03-09T12:12:36.523Z,100346.63
2019-03-09T12:15:04.960Z,100334.07
2019-03-09T12:17:30.927Z,100342.64
2019-03-09T12:19:56.879Z,100345.63
2019-03-09T12:22:22.705Z,100357.27
2019-03-09T12:24:50.752Z,100336.13
2019-03-09T12:27:16.603Z,100329.28
2019-03-09T12:29:42.477Z,100323.89
2019-03-09T12:32:08.301Z,100319.13
2019-03-09T12:34:34.238Z,100306.57
2019-03-09T12:37:00.155Z,100295.28
2019-03-09T12:39:26.074Z,100300.55
2019-03-09T12:41:52.567Z,100297.03
2019-03-09T12:44:18.720Z,100296.12
2019-03-09T12:46:44.653Z,100285.53
2019-03-09T12:49:10.626Z,100305.80
2019-03-09T12:51:36.735Z,100301.96
2019-03-09T12:54:02.673Z,100299.50
2019-03-09T12:56:28.528Z,100303.84
2019-03-09T12:58:54.449Z,100315.04
2019-03-09T13:01:22.046Z,100300.16
2019-03-09T13:03:48.114Z,100300.84
2019-03-09T13:06:14.293Z,100302.87
2019-03-09T13:08:40.204Z,100318.80
2019-03-09T13:11:06.236Z,100311.14
2019-03-09T13:13:32.931Z,100294.72
2019-03-09T13:15:58.930Z,100283.45
2019-03-09T13:18:24.791Z,100271.47
2019-03-09T13:20:50.626Z,100262.25
2019-03-09T13:23:16.596Z,100252.58
2019-03-09T13:25:42.561Z,100237.23
2019-03-09T13:28:08.632Z,100233.87
2019-03-09T13:30:34.560Z,100238.27
2019-03-09T13:33:00.771Z,100239.80
2019-03-09T13:35:26.682Z,100232.21
2019-03-09T13:37:52.645Z,100222.75
2019-03-09T13:40:18.813Z,100227.97
2019-03-09T13:42:44.873Z,100219.13
2019-03-09T13:45:12.822Z,100222.55
2019-03-09T13:47:38.933Z,100208.06
2019-03-09T13:50:07.897Z,100214.45
2019-03-09T13:52:33.723Z,100215.61
2019-03-09T13:54:59.737Z,100214.58
2019-03-09T13:57:25.557Z,100216.61
2019-03-09T13:59:51.450Z,100215.50
2019-03-09T14:02:17.272Z,100210.45
2019-03-09T14:04:43.354Z,100221.08
2019-03-09T14:07:09.309Z,100206.77
2019-03-09T14:09:35.154Z,100216.58
2019-03-09T14:12:00.999Z,100212.41
2019-03-09T14:14:26.986Z,100215.78
2019-03-09T14:16:52.961Z,100199.38
2019-03-09T14:19:18.946Z,100210.37
2019-03-09T14:21:44.798Z,100193.04
2019-03-09T14:24:10.650Z,100198.09
2019-03-09T14:26:36.469Z,100197.27
2019-03-09T14:29:02.506Z,100194.80
2019-03-09T14:31:28.581Z,100198.81
2019-03-09T14:33:54.429Z,100197.43
2019-03-09T14:36:20.339Z,100199.64
2019-03-09T14:38:46.228Z,100185.08
2019-03-09T14:41:12.068Z,100183.11
2019-03-09T14:43:37.904Z,100204.02
2019-03-09T14:46:03.973Z,100198.67
2019-03-09T14:48:29.821Z,100190.37
2019-03-09T14:50:55.653Z,100203.72
2019-03-09T14:53:21.630Z,100213.97
2019-03-09T14:55:47.496Z,100203.77
2019-03-09T14:58:13.339Z,100191.15
2019-03-09T15:00:39.376Z,100189.83
2019-03-09T15:03:05.234Z,100186.03
2019-03-09T15:05:31.049Z,100172.73
2019-03-09T15:07:57.356Z,100167.97
2019-03-09T15:10:23.294Z,100182.41
2019-03-09T15:12:49.335Z,100193.27
2019-03-09T15:15:16.513Z,100195.55
2019-03-09T15:17:42.342Z,100188.73
2019-03-09T15:20:10.307Z,100184.48
2019-03-09T15:22:36.219Z,100203.07
2019-03-09T15:25:03.483Z,100192.16
2019-03-09T15:27:29.427Z,100182.56
2019-03-09T15:29:55.326Z,100184.25
2019-03-09T15:32:21.159Z,100184.40
2019-03-09T15:34:47.233Z,100167.88
2019-03-09T15:37:13.242Z,100161.61
2019-03-09T15:39:39.192Z,100155.25
2019-03-09T15:42:05.168Z,100153.43
2019-03-09T15:44:31.055Z,100151.77
2019-03-09T15:46:57.100Z,100148.97
2019-03-09T15:49:23.061Z,100143.48
2019-03-09T15:51:49.841Z,100141.00
2019-03-09T15:54:16.015Z,100146.39
2019-03-09T15:56:42.055Z,100138.14
2019-03-09T15:59:07.901Z,100132.78
2019-03-09T16:01:33.828Z,100129.25
2019-03-09T16:03:59.679Z,100135.88
2019-03-09T16:06:25.626Z,100146.75
2019-03-09T16:08:51.578Z,100153.47
2019-03-09T16:11:17.520Z,100151.97
2019-03-09T16:13:43.421Z,100152.00
2019-03-09T16:16:09.260Z,100150.80
2019-03-09T16:18:35.109Z,100155.50
2019-03-09T16:21:05.147Z,100156.23
2019-03-09T16:23:30.997Z,100161.06
2019-03-09T16:25:56.836Z,100155.66
2019-03-09T16:28:22.801Z,100150.77
2019-03-09T16:30:48.659Z,100148.97
2019-03-09T16:33:14.720Z,100135.79
2019-03-09T16:35:40.846Z,100134.20
2019-03-09T16:38:06.810Z,100125.47
2019-03-09T16:40:40.006Z,100127.04
2019-03-09T16:43:00.595Z,100141.06
2019-03-09T16:45:26.548Z,100138.81
2019-03-09T16:47:52.596Z,100135.09
2019-03-09T16:50:18.633Z,100132.20
2019-03-09T16:52:44.827Z,100127.20
2019-03-09T16:55:11.049Z,100136.63
2019-03-09T16:57:37.020Z,100140.27
2019-03-09T17:00:17.846Z,100145.00
2019-03-09T17:02:43.988Z,100130.53
2019-03-09T17:05:10.078Z,100126.70
2019-03-09T17:07:36.045Z,100135.55
2019-03-09T17:10:02.098Z,100131.94
2019-03-09T17:12:28.088Z,100124.94
2019-03-09T17:14:54.104Z,100121.63
2019-03-09T17:17:19.989Z,100126.47
2019-03-09T17:19:46.071Z,100122.61
2019-03-09T17:22:11.951Z,100127.88
2019-03-09T17:24:37.892Z,100112.93
2019-03-09T17:27:04.035Z,100105.89
2019-03-09T17:29:29.860Z,100104.75
2019-03-09T17:31:55.693Z,100106.61
2019-03-09T17:34:21.619Z,100114.80
2019-03-09T17:36:47.457Z,100127.77
2019-03-09T17:39:13.284Z,100136.89
2019-03-09T17:41:39.231Z,100144.84
2019-03-09T17:44:05.087Z,100158.59
2019-03-09T17:46:31.016Z,100166.11
2019-03-09T17:48:57.017Z,100174.88
2019-03-09T17:51:22.962Z,100185.08
2019-03-09T17:53:48.808Z,100180.92
2019-03-09T17:56:14.697Z,100195.33
2019-03-09T17:58:40.641Z,100191.98
2019-03-09T18:01:06.678Z,100188.30
2019-03-09T18:03:32.602Z,100200.45
2019-03-09T18:05:58.533Z,100205.67
2019-03-09T18:08:24.380Z,100202.73
2019-03-09T18:10:53.779Z,100213.17
2019-03-09T18:13:20.198Z,100224.28
2019-03-09T18:15:46.155Z,100223.59
2019-03-09T18:18:12.132Z,100218.55
2019-03-09T18:20:37.980Z,100216.16
2019-03-09T18:23:04.105Z,100222.95
2019-03-09T18:25:30.034Z,100211.84
2019-03-09T18:27:55.889Z,100206.66
2019-03-09T18:30:21.877Z,100206.83
2019-03-09T18:32:47.811Z,100202.36
2019-03-09T18:35:13.868Z,100200.23
2019-03-09T18:37:39.944Z,100213.75
2019-03-09T18:40:14.271Z,100217.38
2019-03-09T18:42:40.219Z,100225.34
2019-03-09T18:45:12.109Z,100230.15
2019-03-09T18:47:37.944Z,100224.14
2019-03-09T18:50:05.291Z,100227.77
2019-03-09T18:52:31.253Z,100226.39
2019-03-09T18:54:57.089Z,100226.69
2019-03-09T18:57:23.256Z,100219.69
2019-03-09T18:59:49.088Z,100222.30
2019-03-09T19:02:16.218Z,100226.85
2019-03-09T19:04:42.123Z,100224.14
2019-03-09T19:07:07.951Z,100227.84
2019-03-09T19:09:33.794Z,100229.84
2019-03-09T19:11:59.925Z,100232.63
2019-03-09T19:14:25.863Z,100228.58
2019-03-09T19:16:51.675Z,100225.68
2019-03-09T19:19:17.554Z,100224.54
2019-03-09T19:21:43.387Z,100237.61
2019-03-09T19:24:09.622Z,100236.10
2019-03-09T19:26:38.809Z,100226.14
2019-03-09T19:29:05.315Z,100226.38
2019-03-09T19:31:31.801Z,100229.16
2019-03-09T19:33:57.807Z,100227.98
2019-03-09T19:36:23.639Z,100230.87
2019-03-09T19:38:49.519Z,100229.47
2019-03-09T19:41:15.356Z,100238.20
2019-03-09T19:43:41.252Z,100239.15
2019-03-09T19:46:07.114Z,100236.04
2019-03-09T19:48:33.937Z,100230.77
2019-03-09T19:50:59.997Z,100233.16
2019-03-09T19:53:25.949Z,100225.31
2019-03-09T19:55:51.962Z,100221.77
2019-03-09T19:58:18.079Z,100218.75
2019-03-09T20:00:43.933Z,100214.49
2019-03-09T20:03:09.766Z,100216.75
2019-03-09T20:05:37.787Z,100217.61
2019-03-09T20:08:03.844Z,100213.16
2019-03-09T20:10:29.853Z,100230.64
2019-03-09T20:12:55.848Z,100235.14
2019-03-09T20:15:22.124Z,100239.84
2019-03-09T20:17:48.707Z,100247.22
2019-03-09T20:20:16.328Z,100239.12
2019-03-09T20:22:42.390Z,100241.56
2019-03-09T20:25:09.174Z,100234.63
2019-03-09T20:27:35.450Z,100233.91
2019-03-09T20:30:02.541Z,100235.00
2019-03-09T20:32:30.950Z,100236.68
2019-03-09T20:34:57.668Z,100235.67
2019-03-09T20:37:24.742Z,100249.63
2019-03-09T20:39:53.388Z,100251.33
2019-03-09T20:42:22.113Z,100250.77
2019-03-09T20:44:49.408Z,100241.75
2019-03-09T20:47:16.885Z,100232.41
2019-03-09T20:49:45.682Z,100241.27
2019-03-09T20:52:15.355Z,100244.39
2019-03-09T20:54:42.345Z,100242.30
2019-03-09T20:57:09.455Z,100247.88
2019-03-09T20:59:36.533Z,100251.11
2019-03-09T21:02:03.833Z,100252.09
2019-03-09T21:04:30.909Z,100241.28
2019-03-09T21:06:59.558Z,100254.23
2019-03-09T21:09:26.720Z,100256.28
2019-03-09T21:11:53.580Z,100256.59
2019-03-09T21:14:20.452Z,100252.47
2019-03-09T21:16:47.457Z,100243.73
2019-03-09T21:19:14.251Z,100248.42
2019-03-09T21:21:40.780Z,100250.44
2019-03-09T21:24:07.070Z,100256.02
2019-03-09T21:26:33.062Z,100257.45
2019-03-09T21:28:59.163Z,100260.36
2019-03-09T21:31:25.167Z,100261.95
2019-03-09T21:33:51.126Z,100258.39
2019-03-09T21:36:16.979Z,100273.38
2019-03-09T21:38:42.943Z,100275.86
2019-03-09T21:41:08.917Z,100268.42
2019-03-09T21:43:34.815Z,100278.41
2019-03-09T21:46:01.200Z,100295.25
2019-03-09T21:48:27.032Z,100297.70
2019-03-09T21:50:53.014Z,100290.70
2019-03-09T21:53:19.013Z,100287.84
2019-03-09T21:55:44.864Z,100287.58
2019-03-09T21:58:10.934Z,100290.67
2019-03-09T22:00:37.864Z,100285.38
2019-03-09T22:03:03.712Z,100285.84
2019-03-09T22:05:29.593Z,100288.42
2019-03-09T22:07:56.577Z,100285.94
2019-03-09T22:10:22.598Z,100267.58
2019-03-09T22:12:48.506Z,100264.70
2019-03-09T22:15:15.382Z,100271.13
2019-03-09T22:17:41.654Z,100272.05
2019-03-09T22:20:11.291Z,100291.55
2019-03-09T22:22:37.485Z,100291.70
2019-03-09T22:25:06.731Z,100282.10
2019-03-09T22:27:32.570Z,100297.31
2019-03-09T22:29:58.457Z,100302.46
2019-03-09T22:32:24.310Z,100297.32
2019-03-09T22:34:50.294Z,100307.61
2019-03-09T22:37:16.241Z,100306.41
2019-03-09T22:39:42.216Z,100316.07
2019-03-09T22:42:08.173Z,100323.48
2019-03-09T22:44:33.991Z,100323.28
2019-03-09T22:47:10.826Z,100328.30
2019-03-09T22:49:27.955Z,100331.44
2019-03-09T22:51:53.801Z,100332.48
2019-03-09T22:54:19.730Z,100328.23
2019-03-09T22:56:45.624Z,100330.66
2019-03-09T22:59:11.501Z,100333.34
2019-03-09T23:01:41.039Z,100329.14
2019-03-09T23:04:06.997Z,100332.33
2019-03-09T23:06:33.058Z,100321.72
2019-03-09T23:08:59.133Z,100305.11
2019-03-09T23:11:25.058Z,100319.16
2019-03-09T23:13:51.055Z,100331.13
2019-03-09T23:16:16.926Z,100328.52
2019-03-09T23:18:42.784Z,100322.89
2019-03-09T23:21:08.708Z,100312.19
2019-03-09T23:23:36.518Z,100311.66
2019-03-09T23:26:02.448Z,100310.73
2019-03-09T23:28:43.255Z,100311.20
2019-03-09T23:31:09.183Z,100305.94
2019-03-09T23:33:35.050Z,100297.50
2019-03-09T23:36:01.005Z,100310.65
2019-03-09T23:38:26.871Z,100301.95
2019-03-09T23:40:52.934Z,100296.56
2019-03-09T23:43:18.776Z,100302.93
2019-03-09T23:45:44.808Z,100302.80
2019-03-09T23:48:10.936Z,100292.10
2019-03-09T23:50:36.979Z,100283.55
2019-03-09T23:53:03.026Z,100279.51
2019-03-09T23:55:28.999Z,100280.48
2019-03-09T23:57:55.053Z,100271.81
